createdAt,value
2023-02-22T17:01:59.643Z,21.80
2023-02-22T17:03:31.607Z,25.80
2023-02-22T17:05:03.688Z,19.20
2023-02-22T17:06:36.285Z,24.40
2023-02-22T17:08:08.253Z,17.60
2023-02-22T17:09:40.229Z,18.60
2023-02-22T17:11:13.078Z,24.60
2023-02-22T17:12:50.215Z,18.60
2023-02-22T17:14:23.509Z,19.00
2023-02-22T17:15:56.503Z,19.20
2023-02-22T17:17:28.371Z,20.40
2023-02-22T17:19:00.709Z,19.80
2023-02-22T17:20:33.014Z,23.80
2023-02-22T17:22:06.388Z,15.80
2023-02-22T17:23:38.302Z,22.00
2023-02-22T17:25:22.168Z,16.00
2023-02-22T17:26:54.507Z,18.00
2023-02-22T17:28:26.668Z,13.60
2023-02-22T17:29:58.696Z,17.20
2023-02-22T17:31:30.829Z,19.00
2023-02-22T17:33:04.332Z,18.40
2023-02-22T17:34:36.394Z,14.80
2023-02-22T17:36:08.577Z,17.60
2023-02-22T17:37:40.556Z,16.20
2023-02-22T17:39:13.590Z,18.20
2023-02-22T17:40:57.380Z,17.80
2023-02-22T17:42:29.410Z,15.80
2023-02-22T17:44:01.278Z,18.60
2023-02-22T17:45:33.185Z,22.60
2023-02-22T17:47:05.165Z,14.20
2023-02-22T17:48:37.516Z,17.60
2023-02-22T17:50:11.064Z,19.60
2023-02-22T17:51:43.118Z,17.00
2023-02-22T17:53:15.413Z,17.40
2023-02-22T17:54:47.299Z,17.00
2023-02-22T17:56:19.725Z,14.20
2023-02-22T17:57:58.467Z,18.40
2023-02-22T17:59:30.362Z,16.00
2023-02-22T18:01:02.547Z,22.00
2023-02-22T18:02:34.773Z,16.20
2023-02-22T18:04:06.981Z,18.60
2023-02-22T18:05:43.283Z,18.00
2023-02-22T18:07:19.347Z,14.00
2023-02-22T18:08:55.832Z,17.20
2023-02-22T18:10:28.264Z,23.40
2023-02-22T18:12:00.162Z,24.60
2023-02-22T18:13:32.136Z,39.20
2023-02-22T18:15:04.600Z,50.60
2023-02-22T18:16:39.026Z,61.80
2023-02-22T18:18:11.271Z,67.50
2023-02-22T18:19:43.114Z,72.75
2023-02-22T18:21:15.712Z,79.25
2023-02-22T18:22:47.675Z,83.25
2023-02-22T18:24:19.601Z,93.75
2023-02-22T18:26:09.197Z,94.75
2023-02-22T18:27:45.083Z,104.00
2023-02-22T18:29:16.947Z,110.60
2023-02-22T18:30:49.492Z,110.00
2023-02-22T18:32:21.454Z,112.40
2023-02-22T18:33:53.609Z,125.25
2023-02-22T18:35:25.643Z,118.50
2023-02-22T18:36:57.687Z,119.25
2023-02-22T18:38:29.581Z,135.00
2023-02-22T18:40:01.442Z,130.50
2023-02-22T18:41:33.345Z,140.00
2023-02-22T18:43:05.258Z,133.00
2023-02-22T18:44:37.503Z,146.00
2023-02-22T18:46:12.895Z,156.75
2023-02-22T18:47:46.060Z,156.00
2023-02-22T18:49:18.060Z,144.25
2023-02-22T18:50:49.888Z,162.00
2023-02-22T18:52:21.980Z,159.50
2023-02-22T18:54:00.160Z,164.00
2023-02-22T18:55:32.422Z,149.00
2023-02-22T18:57:04.532Z,154.25
2023-02-22T18:58:36.521Z,175.00
2023-02-22T19:00:12.304Z,138.00
2023-02-22T19:01:49.016Z,156.25
2023-02-22T19:03:21.086Z,164.25
2023-02-22T19:04:53.530Z,162.75
2023-02-22T19:06:25.357Z,158.75
2023-02-22T19:07:57.346Z,160.75
2023-02-22T19:09:30.291Z,168.75
2023-02-22T19:11:04.563Z,153.50
2023-02-22T19:12:37.835Z,144.25
2023-02-22T19:14:09.966Z,152.00
2023-02-22T19:15:42.071Z,150.50
2023-02-22T19:17:17.525Z,138.00
2023-02-22T19:18:50.123Z,135.00
2023-02-22T19:20:21.914Z,139.25
2023-02-22T19:21:56.433Z,140.00
2023-02-22T19:23:28.544Z,134.50
2023-02-22T19:25:01.461Z,126.00
2023-02-22T19:26:33.656Z,141.50
2023-02-22T19:28:05.767Z,125.75
2023-02-22T19:29:39.090Z,114.50
2023-02-22T19:31:17.764Z,103.50
2023-02-22T19:32:50.070Z,104.20
2023-02-22T19:34:24.055Z,102.20
2023-02-22T19:35:59.902Z,94.50
2023-02-22T19:37:34.929Z,95.00
2023-02-22T19:39:07.272Z,94.00
2023-02-22T19:40:39.341Z,89.50
2023-02-22T19:42:11.427Z,81.25
2023-02-22T19:43:44.448Z,86.75
2023-02-22T19:45:17.042Z,98.50
2023-02-22T19:46:49.075Z,105.20
2023-02-22T19:48:21.004Z,105.60
2023-02-22T19:49:53.115Z,108.00
2023-02-22T19:51:27.867Z,114.20
2023-02-22T19:52:59.872Z,105.25
2023-02-22T19:54:31.747Z,117.00
2023-02-22T19:56:14.296Z,126.50
2023-02-22T19:57:50.265Z,131.75
2023-02-22T19:59:23.256Z,131.00
2023-02-22T20:00:55.264Z,120.50
2023-02-22T20:02:27.701Z,134.00
2023-02-22T20:04:01.195Z,116.75
2023-02-22T20:05:33.916Z,131.75
2023-02-22T20:07:05.831Z,116.75
2023-02-22T20:08:42.261Z,130.00
2023-02-22T20:10:15.340Z,125.75
2023-02-22T20:11:47.686Z,122.50
2023-02-22T20:13:19.502Z,121.25
2023-02-22T20:14:51.388Z,130.00
2023-02-22T20:16:23.615Z,119.25
2023-02-22T20:17:56.088Z,123.75
2023-02-22T20:19:28.131Z,132.25
2023-02-22T20:21:00.323Z,145.50
2023-02-22T20:22:32.126Z,143.25
2023-02-22T20:24:06.933Z,155.25
2023-02-22T20:25:39.009Z,155.75
2023-02-22T20:27:10.895Z,161.00
2023-02-22T20:28:42.948Z,165.25
2023-02-22T20:30:18.202Z,166.00
2023-02-22T20:31:53.806Z,149.00
2023-02-22T20:33:25.907Z,157.00
2023-02-22T20:34:58.288Z,172.25
2023-02-22T20:36:30.393Z,183.25
2023-02-22T20:38:03.009Z,214.67
2023-02-22T20:39:35.089Z,205.33
2023-02-22T20:41:08.118Z,209.67
2023-02-22T20:42:40.779Z,200.67
2023-02-22T20:44:15.106Z,202.67
2023-02-22T20:45:47.096Z,217.67
2023-02-22T20:47:19.355Z,216.00
2023-02-22T20:48:55.906Z,205.33
2023-02-22T20:50:28.104Z,210.33
2023-02-22T20:51:59.989Z,222.00
2023-02-22T20:53:31.825Z,212.00
2023-02-22T20:55:04.423Z,219.00
2023-02-22T20:56:36.844Z,237.33
2023-02-22T20:58:08.775Z,241.33
2023-02-22T20:59:40.631Z,242.33
2023-02-22T21:01:14.021Z,231.33
2023-02-22T21:02:47.343Z,236.00
2023-02-22T21:04:19.343Z,236.00
2023-02-22T21:05:51.258Z,228.00
2023-02-22T21:07:23.168Z,226.00
2023-02-22T21:08:57.183Z,220.67
2023-02-22T21:10:29.096Z,224.00
2023-02-22T21:12:00.929Z,220.00
2023-02-22T21:13:32.783Z,225.33
2023-02-22T21:15:05.047Z,212.00
2023-02-22T21:16:37.188Z,219.67
2023-02-22T21:18:11.958Z,200.67
2023-02-22T21:19:44.081Z,204.00
2023-02-22T21:21:16.507Z,214.33
2023-02-22T21:22:50.946Z,189.50
2023-02-22T21:24:23.724Z,191.50
2023-02-22T21:25:55.602Z,179.50
2023-02-22T21:27:28.164Z,178.75
2023-02-22T21:29:02.363Z,178.25
2023-02-22T21:30:34.413Z,179.50
2023-02-22T21:32:06.506Z,162.75
2023-02-22T21:33:40.928Z,162.75
2023-02-22T21:35:12.771Z,161.25
2023-02-22T21:36:45.240Z,153.50
2023-02-22T21:38:17.988Z,157.50
2023-02-22T21:39:49.935Z,149.75
2023-02-22T21:41:23.885Z,146.50
2023-02-22T21:42:55.824Z,146.25
2023-02-22T21:44:27.741Z,135.25
2023-02-22T21:46:03.322Z,117.50
2023-02-22T21:47:35.979Z,130.50
2023-02-22T21:49:07.965Z,119.00
2023-02-22T21:50:39.815Z,117.80
2023-02-22T21:52:11.664Z,110.50
2023-02-22T21:53:47.634Z,118.20
2023-02-22T21:55:19.461Z,110.40
2023-02-22T21:56:51.583Z,103.40
2023-02-22T21:58:23.421Z,104.75
2023-02-22T21:59:55.344Z,95.00
2023-02-22T22:01:28.638Z,85.25
2023-02-22T22:03:08.055Z,93.75
2023-02-22T22:04:40.047Z,82.00
2023-02-22T22:06:13.632Z,85.00
2023-02-22T22:07:45.562Z,79.25
2023-02-22T22:09:21.935Z,78.25
2023-02-22T22:10:56.620Z,75.50
2023-02-22T22:12:38.727Z,78.50
2023-02-22T22:14:11.225Z,78.50
2023-02-22T22:15:43.184Z,77.50
2023-02-22T22:17:15.622Z,74.00
2023-02-22T22:18:47.509Z,74.00
2023-02-22T22:20:19.479Z,68.75
2023-02-22T22:21:54.074Z,66.25
2023-02-22T22:23:26.708Z,47.50
2023-02-22T22:24:58.530Z,62.25
2023-02-22T22:26:31.102Z,62.00
2023-02-22T22:28:02.942Z,61.75
2023-02-22T22:29:34.931Z,81.75
2023-02-22T22:31:07.161Z,93.75
2023-02-22T22:32:39.100Z,109.40
2023-02-22T22:34:11.364Z,100.80
2023-02-22T22:35:43.178Z,91.50
2023-02-22T22:37:16.314Z,92.50
2023-02-22T22:38:48.397Z,92.00
2023-02-22T22:40:20.370Z,91.75
2023-02-22T22:41:52.261Z,93.00
2023-02-22T22:43:25.108Z,100.40
2023-02-22T22:44:57.110Z,80.25
2023-02-22T22:46:29.130Z,94.50
2023-02-22T22:48:00.957Z,86.00
2023-02-22T22:49:33.741Z,80.00
2023-02-22T22:51:10.762Z,78.75
2023-02-22T22:52:42.686Z,87.00
2023-02-22T22:54:14.537Z,98.80
2023-02-22T22:55:46.496Z,130.25
2023-02-22T22:57:18.373Z,112.75
2023-02-22T22:58:51.620Z,119.50
2023-02-22T23:00:29.492Z,120.00
2023-02-22T23:02:03.953Z,123.00
2023-02-22T23:03:38.769Z,111.75
2023-02-22T23:05:10.661Z,122.75
2023-02-22T23:06:47.005Z,114.75
2023-02-22T23:08:18.887Z,119.50
2023-02-22T23:09:50.726Z,113.75
2023-02-22T23:11:22.598Z,103.75
2023-02-22T23:12:56.232Z,109.00
2023-02-22T23:14:32.369Z,107.40
2023-02-22T23:16:07.251Z,100.60
2023-02-22T23:17:42.624Z,114.00
2023-02-22T23:19:15.821Z,108.20
2023-02-22T23:20:55.171Z,114.20
2023-02-22T23:22:28.056Z,126.75
2023-02-22T23:23:59.895Z,127.25
2023-02-22T23:25:35.289Z,140.00
2023-02-22T23:27:07.429Z,142.50
2023-02-22T23:28:39.898Z,139.00
2023-02-22T23:30:15.051Z,141.75
2023-02-22T23:31:48.764Z,143.75
2023-02-22T23:33:20.789Z,135.00
2023-02-22T23:34:52.771Z,143.25
